sensor_id;sensor_type;location;lat;lon;timestamp;pressure;altitude;pressure_sealevel;temperature;humidity
46782;BME280;32541;46.298;11.506;2023-12-20T00:02:24;89483.34;;;1.30;62.49
46782;BME280;32541;46.298;11.506;2023-12-20T00:04:49;89486.88;;;1.38;63.21
46782;BME280;32541;46.298;11.506;2023-12-20T00:07:15;89485.50;;;1.32;62.97
46782;BME280;32541;46.298;11.506;2023-12-20T00:09:41;89488.97;;;1.32;62.95
46782;BME280;32541;46.298;11.506;2023-12-20T00:12:07;89483.66;;;1.27;63.09
46782;BME280;32541;46.298;11.506;2023-12-20T00:14:32;89477.81;;;1.36;63.20
46782;BME280;32541;46.298;11.506;2023-12-20T00:16:57;89470.41;;;1.36;63.11
46782;BME280;32541;46.298;11.506;2023-12-20T00:19:23;89470.13;;;1.27;62.91
46782;BME280;32541;46.298;11.506;2023-12-20T00:21:49;89468.97;;;1.22;63.77
46782;BME280;32541;46.298;11.506;2023-12-20T00:24:14;89473.97;;;1.18;63.93
46782;BME280;32541;46.298;11.506;2023-12-20T00:26:40;89470.75;;;1.20;64.41
46782;BME280;32541;46.298;11.506;2023-12-20T00:29:05;89463.03;;;1.10;64.08
46782;BME280;32541;46.298;11.506;2023-12-20T00:31:30;89455.53;;;1.30;62.09
46782;BME280;32541;46.298;11.506;2023-12-20T00:33:56;89460.00;;;1.27;61.94
46782;BME280;32541;46.298;11.506;2023-12-20T00:36:21;89458.25;;;1.30;62.13
46782;BME280;32541;46.298;11.506;2023-12-20T00:38:47;89460.00;;;1.27;61.92
46782;BME280;32541;46.298;11.506;2023-12-20T00:41:12;89451.66;;;1.25;62.92
46782;BME280;32541;46.298;11.506;2023-12-20T00:43:38;89449.06;;;1.20;63.57
46782;BME280;32541;46.298;11.506;2023-12-20T00:46:03;89442.72;;;1.17;63.15
46782;BME280;32541;46.298;11.506;2023-12-20T00:48:29;89430.84;;;1.20;63.37
46782;BME280;32541;46.298;11.506;2023-12-20T00:50:57;89430.56;;;1.10;63.62
46782;BME280;32541;46.298;11.506;2023-12-20T00:53:22;89426.47;;;1.17;63.33
46782;BME280;32541;46.298;11.506;2023-12-20T00:55:48;89428.78;;;1.13;63.39
46782;BME280;32541;46.298;11.506;2023-12-20T00:58:14;89420.03;;;1.07;63.91
46782;BME280;32541;46.298;11.506;2023-12-20T01:00:40;89408.81;;;1.03;63.47
46782;BME280;32541;46.298;11.506;2023-12-20T01:03:07;89412.34;;;1.11;63.16
46782;BME280;32541;46.298;11.506;2023-12-20T01:05:32;89414.13;;;1.08;63.44
46782;BME280;32541;46.298;11.506;2023-12-20T01:07:58;89409.00;;;1.18;63.36
46782;BME280;32541;46.298;11.506;2023-12-20T01:10:23;89404.34;;;1.05;63.43
46782;BME280;32541;46.298;11.506;2023-12-20T01:12:49;89412.47;;;0.92;64.87
46782;BME280;32541;46.298;11.506;2023-12-20T01:15:14;89411.34;;;0.88;64.62
46782;BME280;32541;46.298;11.506;2023-12-20T01:17:39;89400.41;;;0.80;64.67
46782;BME280;32541;46.298;11.506;2023-12-20T01:20:05;89384.91;;;0.81;64.69
46782;BME280;32541;46.298;11.506;2023-12-20T01:22:31;89383.34;;;0.85;64.28
46782;BME280;32541;46.298;11.506;2023-12-20T01:24:56;89371.06;;;0.84;64.06
46782;BME280;32541;46.298;11.506;2023-12-20T01:27:22;89360.84;;;0.90;63.69
46782;BME280;32541;46.298;11.506;2023-12-20T01:29:47;89362.06;;;1.02;63.24
46782;BME280;32541;46.298;11.506;2023-12-20T01:32:12;89367.72;;;0.91;64.54
46782;BME280;32541;46.298;11.506;2023-12-20T01:34:38;89369.81;;;0.85;64.80
46782;BME280;32541;46.298;11.506;2023-12-20T01:37:03;89362.50;;;0.93;64.43
46782;BME280;32541;46.298;11.506;2023-12-20T01:39:29;89358.94;;;0.98;64.07
46782;BME280;32541;46.298;11.506;2023-12-20T01:41:54;89372.88;;;1.02;64.17
46782;BME280;32541;46.298;11.506;2023-12-20T01:44:20;89364.69;;;0.95;64.87
46782;BME280;32541;46.298;11.506;2023-12-20T01:46:45;89363.59;;;0.77;64.35
46782;BME280;32541;46.298;11.506;2023-12-20T01:49:11;89364.63;;;0.74;64.54
46782;BME280;32541;46.298;11.506;2023-12-20T01:51:37;89361.19;;;0.74;64.91
46782;BME280;32541;46.298;11.506;2023-12-20T01:54:03;89362.13;;;0.76;65.40
46782;BME280;32541;46.298;11.506;2023-12-20T01:56:29;89357.88;;;0.54;67.21
46782;BME280;32541;46.298;11.506;2023-12-20T01:58:56;89352.06;;;0.50;67.60
46782;BME280;32541;46.298;11.506;2023-12-20T02:01:22;89341.34;;;0.58;66.97
46782;BME280;32541;46.298;11.506;2023-12-20T02:03:47;89341.25;;;0.50;66.67
46782;BME280;32541;46.298;11.506;2023-12-20T02:06:13;89330.81;;;0.54;66.02
46782;BME280;32541;46.298;11.506;2023-12-20T02:08:39;89322.41;;;0.58;65.77
46782;BME280;32541;46.298;11.506;2023-12-20T02:11:04;89314.47;;;0.60;66.10
46782;BME280;32541;46.298;11.506;2023-12-20T02:13:30;89316.13;;;0.63;66.21
46782;BME280;32541;46.298;11.506;2023-12-20T02:15:56;89307.38;;;0.70;65.09
46782;BME280;32541;46.298;11.506;2023-12-20T02:18:22;89318.75;;;0.55;65.33
46782;BME280;32541;46.298;11.506;2023-12-20T02:20:47;89313.66;;;0.52;66.46
46782;BME280;32541;46.298;11.506;2023-12-20T02:23:12;89314.50;;;0.47;67.91
46782;BME280;32541;46.298;11.506;2023-12-20T02:25:41;89308.25;;;0.52;66.58
46782;BME280;32541;46.298;11.506;2023-12-20T02:28:06;89312.31;;;0.59;64.27
46782;BME280;32541;46.298;11.506;2023-12-20T02:30:32;89326.13;;;0.68;64.91
46782;BME280;32541;46.298;11.506;2023-12-20T02:32:59;89333.59;;;0.75;64.86
46782;BME280;32541;46.298;11.506;2023-12-20T02:35:25;89322.78;;;0.75;64.06
46782;BME280;32541;46.298;11.506;2023-12-20T02:37:50;89316.13;;;0.76;64.93
46782;BME280;32541;46.298;11.506;2023-12-20T02:40:16;89320.31;;;0.64;66.55
46782;BME280;32541;46.298;11.506;2023-12-20T02:42:41;89319.06;;;0.65;65.77
46782;BME280;32541;46.298;11.506;2023-12-20T02:45:07;89317.47;;;0.70;64.69
46782;BME280;32541;46.298;11.506;2023-12-20T02:47:32;89303.03;;;0.67;64.63
46782;BME280;32541;46.298;11.506;2023-12-20T02:49:58;89311.56;;;0.58;65.94
46782;BME280;32541;46.298;11.506;2023-12-20T02:52:24;89301.38;;;0.51;66.67
46782;BME280;32541;46.298;11.506;2023-12-20T02:54:49;89298.47;;;0.49;66.28
46782;BME280;32541;46.298;11.506;2023-12-20T02:57:15;89279.75;;;0.51;66.07
46782;BME280;32541;46.298;11.506;2023-12-20T02:59:40;89274.56;;;0.53;65.92
46782;BME280;32541;46.298;11.506;2023-12-20T03:02:05;89274.03;;;0.54;66.42
46782;BME280;32541;46.298;11.506;2023-12-20T03:04:31;89263.94;;;0.55;66.45
46782;BME280;32541;46.298;11.506;2023-12-20T03:06:56;89267.25;;;0.61;66.42
46782;BME280;32541;46.298;11.506;2023-12-20T03:09:21;89256.00;;;0.57;67.11
46782;BME280;32541;46.298;11.506;2023-12-20T03:11:47;89256.97;;;0.80;64.10
46782;BME280;32541;46.298;11.506;2023-12-20T03:14:12;89255.34;;;0.77;65.05
46782;BME280;32541;46.298;11.506;2023-12-20T03:16:37;89244.03;;;0.86;65.52
46782;BME280;32541;46.298;11.506;2023-12-20T03:19:03;89237.03;;;0.70;65.39
46782;BME280;32541;46.298;11.506;2023-12-20T03:21:29;89225.75;;;0.59;66.69
46782;BME280;32541;46.298;11.506;2023-12-20T03:23:54;89214.13;;;0.50;66.33
46782;BME280;32541;46.298;11.506;2023-12-20T03:26:19;89218.88;;;0.57;66.18
46782;BME280;32541;46.298;11.506;2023-12-20T03:28:45;89207.13;;;0.55;66.39
46782;BME280;32541;46.298;11.506;2023-12-20T03:31:10;89197.56;;;0.54;66.24
46782;BME280;32541;46.298;11.506;2023-12-20T03:33:36;89202.97;;;0.54;66.17
46782;BME280;32541;46.298;11.506;2023-12-20T03:36:01;89194.19;;;0.61;67.19
46782;BME280;32541;46.298;11.506;2023-12-20T03:38:26;89193.66;;;0.63;66.74
46782;BME280;32541;46.298;11.506;2023-12-20T03:40:52;89199.06;;;0.63;66.03
46782;BME280;32541;46.298;11.506;2023-12-20T03:43:17;89203.53;;;0.73;65.11
46782;BME280;32541;46.298;11.506;2023-12-20T03:45:43;89200.81;;;0.73;66.43
46782;BME280;32541;46.298;11.506;2023-12-20T03:48:08;89200.63;;;0.71;66.15
46782;BME280;32541;46.298;11.506;2023-12-20T03:50:34;89201.41;;;0.79;66.17
46782;BME280;32541;46.298;11.506;2023-12-20T03:52:59;89199.34;;;0.72;66.24
46782;BME280;32541;46.298;11.506;2023-12-20T03:55:25;89211.03;;;0.67;67.06
46782;BME280;32541;46.298;11.506;2023-12-20T03:57:50;89216.56;;;0.62;66.85
46782;BME280;32541;46.298;11.506;2023-12-20T04:00:15;89202.44;;;0.55;66.59
46782;BME280;32541;46.298;11.506;2023-12-20T04:02:41;89188.97;;;0.63;66.80
46782;BME280;32541;46.298;11.506;2023-12-20T04:05:08;89196.13;;;0.53;69.41
46782;BME280;32541;46.298;11.506;2023-12-20T04:07:35;89191.41;;;0.53;68.00
46782;BME280;32541;46.298;11.506;2023-12-20T04:10:00;89196.50;;;0.57;66.86
46782;BME280;32541;46.298;11.506;2023-12-20T04:12:27;89179.34;;;0.54;69.02
46782;BME280;32541;46.298;11.506;2023-12-20T04:14:52;89177.38;;;0.55;67.63
46782;BME280;32541;46.298;11.506;2023-12-20T04:17:17;89182.06;;;0.54;66.72
46782;BME280;32541;46.298;11.506;2023-12-20T04:19:43;89190.22;;;0.41;68.01
46782;BME280;32541;46.298;11.506;2023-12-20T04:22:08;89181.59;;;0.30;68.96
46782;BME280;32541;46.298;11.506;2023-12-20T04:24:34;89177.63;;;0.44;68.84
46782;BME280;32541;46.298;11.506;2023-12-20T04:26:59;89174.91;;;0.44;68.36
46782;BME280;32541;46.298;11.506;2023-12-20T04:29:25;89178.72;;;0.28;68.55
46782;BME280;32541;46.298;11.506;2023-12-20T04:31:50;89163.53;;;0.25;67.95
46782;BME280;32541;46.298;11.506;2023-12-20T04:34:17;89162.28;;;0.26;68.05
46782;BME280;32541;46.298;11.506;2023-12-20T04:36:42;89159.66;;;0.33;66.84
46782;BME280;32541;46.298;11.506;2023-12-20T04:39:08;89159.75;;;0.41;67.02
46782;BME280;32541;46.298;11.506;2023-12-20T04:41:33;89158.59;;;0.36;66.93
46782;BME280;32541;46.298;11.506;2023-12-20T04:43:59;89150.59;;;0.44;66.58
46782;BME280;32541;46.298;11.506;2023-12-20T04:46:25;89143.81;;;0.50;66.00
46782;BME280;32541;46.298;11.506;2023-12-20T04:48:51;89145.97;;;0.52;65.87
46782;BME280;32541;46.298;11.506;2023-12-20T04:51:16;89147.81;;;0.57;66.66
46782;BME280;32541;46.298;11.506;2023-12-20T04:53:41;89146.97;;;0.62;67.36
46782;BME280;32541;46.298;11.506;2023-12-20T04:56:07;89141.66;;;0.56;67.43
46782;BME280;32541;46.298;11.506;2023-12-20T04:58:32;89138.84;;;0.62;66.73
46782;BME280;32541;46.298;11.506;2023-12-20T05:00:58;89129.47;;;0.63;66.32
46782;BME280;32541;46.298;11.506;2023-12-20T05:03:23;89130.13;;;0.77;65.94
46782;BME280;32541;46.298;11.506;2023-12-20T05:05:48;89135.09;;;0.65;67.02
46782;BME280;32541;46.298;11.506;2023-12-20T05:08:14;89124.59;;;0.62;66.68
46782;BME280;32541;46.298;11.506;2023-12-20T05:10:40;89114.69;;;0.64;66.13
46782;BME280;32541;46.298;11.506;2023-12-20T05:13:06;89107.16;;;0.70;66.91
46782;BME280;32541;46.298;11.506;2023-12-20T05:15:31;89109.22;;;0.77;68.66
46782;BME280;32541;46.298;11.506;2023-12-20T05:17:57;89109.41;;;0.79;68.80
46782;BME280;32541;46.298;11.506;2023-12-20T05:20:22;89110.78;;;0.73;67.63
46782;BME280;32541;46.298;11.506;2023-12-20T05:22:48;89109.28;;;0.85;68.11
46782;BME280;32541;46.298;11.506;2023-12-20T05:25:13;89102.25;;;0.89;68.42
46782;BME280;32541;46.298;11.506;2023-12-20T05:27:39;89093.94;;;0.87;68.03
46782;BME280;32541;46.298;11.506;2023-12-20T05:30:05;89094.22;;;0.76;68.78
46782;BME280;32541;46.298;11.506;2023-12-20T05:32:30;89083.34;;;0.69;68.89
46782;BME280;32541;46.298;11.506;2023-12-20T05:34:56;89084.06;;;0.69;69.05
46782;BME280;32541;46.298;11.506;2023-12-20T05:37:21;89078.50;;;0.75;69.05
46782;BME280;32541;46.298;11.506;2023-12-20T05:39:47;89073.34;;;0.84;69.12
46782;BME280;32541;46.298;11.506;2023-12-20T05:42:12;89080.22;;;0.85;68.44
46782;BME280;32541;46.298;11.506;2023-12-20T05:44:37;89089.59;;;0.84;71.01
46782;BME280;32541;46.298;11.506;2023-12-20T05:47:03;89093.53;;;0.83;68.07
46782;BME280;32541;46.298;11.506;2023-12-20T05:49:28;89089.94;;;0.81;67.96
46782;BME280;32541;46.298;11.506;2023-12-20T05:51:55;89100.22;;;0.82;68.13
46782;BME280;32541;46.298;11.506;2023-12-20T05:54:20;89102.84;;;0.95;69.19
46782;BME280;32541;46.298;11.506;2023-12-20T05:56:46;89103.56;;;0.96;69.89
46782;BME280;32541;46.298;11.506;2023-12-20T05:59:12;89107.00;;;0.96;69.45
46782;BME280;32541;46.298;11.506;2023-12-20T06:01:37;89113.47;;;0.93;69.51
46782;BME280;32541;46.298;11.506;2023-12-20T06:04:03;89101.00;;;0.90;69.00
46782;BME280;32541;46.298;11.506;2023-12-20T06:06:28;89101.94;;;0.93;70.04
46782;BME280;32541;46.298;11.506;2023-12-20T06:08:53;89099.75;;;0.91;71.48
46782;BME280;32541;46.298;11.506;2023-12-20T06:11:19;89115.59;;;0.87;72.77
46782;BME280;32541;46.298;11.506;2023-12-20T06:13:44;89121.34;;;0.84;71.87
46782;BME280;32541;46.298;11.506;2023-12-20T06:16:10;89120.28;;;0.87;71.03
46782;BME280;32541;46.298;11.506;2023-12-20T06:18:35;89126.88;;;0.99;70.44
46782;BME280;32541;46.298;11.506;2023-12-20T06:21:02;89119.66;;;1.01;69.82
46782;BME280;32541;46.298;11.506;2023-12-20T06:23:27;89112.34;;;1.09;69.52
46782;BME280;32541;46.298;11.506;2023-12-20T06:25:53;89115.44;;;1.13;69.00
46782;BME280;32541;46.298;11.506;2023-12-20T06:28:18;89101.03;;;1.19;68.72
46782;BME280;32541;46.298;11.506;2023-12-20T06:30:44;89098.31;;;1.19;68.59
46782;BME280;32541;46.298;11.506;2023-12-20T06:33:09;89091.31;;;1.23;68.39
46782;BME280;32541;46.298;11.506;2023-12-20T06:35:36;89093.94;;;1.44;64.42
46782;BME280;32541;46.298;11.506;2023-12-20T06:38:02;89080.28;;;1.21;67.88
46782;BME280;32541;46.298;11.506;2023-12-20T06:40:27;89079.88;;;1.17;67.91
46782;BME280;32541;46.298;11.506;2023-12-20T06:42:52;89083.50;;;1.20;68.51
46782;BME280;32541;46.298;11.506;2023-12-20T06:45:18;89083.84;;;1.16;69.30
46782;BME280;32541;46.298;11.506;2023-12-20T06:47:43;89087.19;;;1.30;68.32
46782;BME280;32541;46.298;11.506;2023-12-20T06:50:09;89089.75;;;1.35;68.27
46782;BME280;32541;46.298;11.506;2023-12-20T06:52:34;89089.72;;;1.28;67.19
46782;BME280;32541;46.298;11.506;2023-12-20T06:55:00;89085.56;;;1.27;67.39
46782;BME280;32541;46.298;11.506;2023-12-20T06:57:26;89088.84;;;1.33;67.85
46782;BME280;32541;46.298;11.506;2023-12-20T06:59:51;89097.53;;;1.39;69.92
46782;BME280;32541;46.298;11.506;2023-12-20T07:02:17;89096.75;;;1.31;70.95
46782;BME280;32541;46.298;11.506;2023-12-20T07:04:42;89097.84;;;1.28;68.60
46782;BME280;32541;46.298;11.506;2023-12-20T07:07:08;89113.41;;;1.35;68.44
46782;BME280;32541;46.298;11.506;2023-12-20T07:09:33;89116.09;;;1.35;70.37
46782;BME280;32541;46.298;11.506;2023-12-20T07:11:59;89111.03;;;1.31;70.58
46782;BME280;32541;46.298;11.506;2023-12-20T07:14:24;89119.53;;;1.35;69.22
46782;BME280;32541;46.298;11.506;2023-12-20T07:16:50;89122.97;;;1.36;70.48
46782;BME280;32541;46.298;11.506;2023-12-20T07:19:15;89119.00;;;1.37;70.15
46782;BME280;32541;46.298;11.506;2023-12-20T07:21:41;89113.63;;;1.44;68.15
46782;BME280;32541;46.298;11.506;2023-12-20T07:24:06;89122.53;;;1.52;69.75
46782;BME280;32541;46.298;11.506;2023-12-20T07:26:32;89132.56;;;1.73;70.95
46782;BME280;32541;46.298;11.506;2023-12-20T07:28:57;89145.81;;;1.84;71.18
46782;BME280;32541;46.298;11.506;2023-12-20T07:31:23;89142.91;;;1.82;69.26
46782;BME280;32541;46.298;11.506;2023-12-20T07:33:49;89146.47;;;1.69;68.63
46782;BME280;32541;46.298;11.506;2023-12-20T07:36:14;89148.56;;;1.55;72.26
46782;BME280;32541;46.298;11.506;2023-12-20T07:38:40;89159.38;;;1.55;72.66
46782;BME280;32541;46.298;11.506;2023-12-20T07:41:09;89169.31;;;1.53;73.13
46782;BME280;32541;46.298;11.506;2023-12-20T07:43:35;89177.84;;;1.57;72.84
46782;BME280;32541;46.298;11.506;2023-12-20T07:46:07;89180.53;;;1.57;72.30
46782;BME280;32541;46.298;11.506;2023-12-20T07:48:34;89185.75;;;1.55;71.58
46782;BME280;32541;46.298;11.506;2023-12-20T07:51:00;89199.88;;;1.61;71.76
46782;BME280;32541;46.298;11.506;2023-12-20T07:53:26;89191.97;;;1.63;71.47
46782;BME280;32541;46.298;11.506;2023-12-20T07:55:52;89192.66;;;1.63;70.90
46782;BME280;32541;46.298;11.506;2023-12-20T07:58:18;89198.88;;;1.72;71.02
46782;BME280;32541;46.298;11.506;2023-12-20T08:00:43;89198.00;;;1.77;70.09
46782;BME280;32541;46.298;11.506;2023-12-20T08:03:09;89212.47;;;1.79;68.64
46782;BME280;32541;46.298;11.506;2023-12-20T08:05:34;89181.09;;;1.91;68.11
46782;BME280;32541;46.298;11.506;2023-12-20T08:08:00;89181.47;;;1.95;67.75
46782;BME280;32541;46.298;11.506;2023-12-20T08:10:25;89179.13;;;1.99;69.39
46782;BME280;32541;46.298;11.506;2023-12-20T08:12:51;89189.13;;;2.04;71.76
46782;BME280;32541;46.298;11.506;2023-12-20T08:15:16;89197.66;;;2.16;65.94
46782;BME280;32541;46.298;11.506;2023-12-20T08:17:41;89200.66;;;2.41;66.02
46782;BME280;32541;46.298;11.506;2023-12-20T08:20:07;89204.31;;;2.51;67.47
46782;BME280;32541;46.298;11.506;2023-12-20T08:22:32;89193.81;;;2.47;67.97
46782;BME280;32541;46.298;11.506;2023-12-20T08:24:58;89184.94;;;2.47;66.69
46782;BME280;32541;46.298;11.506;2023-12-20T08:27:23;89183.84;;;2.42;66.84
46782;BME280;32541;46.298;11.506;2023-12-20T08:29:49;89186.94;;;2.54;66.75
46782;BME280;32541;46.298;11.506;2023-12-20T08:32:15;89192.22;;;2.59;66.47
46782;BME280;32541;46.298;11.506;2023-12-20T08:34:41;89186.94;;;2.54;66.22
46782;BME280;32541;46.298;11.506;2023-12-20T08:37:06;89188.41;;;2.62;67.08
46782;BME280;32541;46.298;11.506;2023-12-20T08:39:31;89191.47;;;2.59;66.98
46782;BME280;32541;46.298;11.506;2023-12-20T08:41:59;89185.13;;;2.49;68.06
46782;BME280;32541;46.298;11.506;2023-12-20T08:44:24;89172.66;;;2.46;66.88
46782;BME280;32541;46.298;11.506;2023-12-20T08:46:49;89175.72;;;2.50;66.77
46782;BME280;32541;46.298;11.506;2023-12-20T08:49:15;89167.78;;;2.52;66.13
46782;BME280;32541;46.298;11.506;2023-12-20T08:51:40;89160.88;;;2.51;67.91
46782;BME280;32541;46.298;11.506;2023-12-20T08:54:06;89150.75;;;2.51;70.54
46782;BME280;32541;46.298;11.506;2023-12-20T08:56:33;89153.66;;;2.53;71.45
46782;BME280;32541;46.298;11.506;2023-12-20T08:58:59;89146.78;;;2.52;70.98
46782;BME280;32541;46.298;11.506;2023-12-20T09:01:24;89150.75;;;2.51;69.24
46782;BME280;32541;46.298;11.506;2023-12-20T09:03:49;89144.66;;;2.58;67.08
46782;BME280;32541;46.298;11.506;2023-12-20T09:06:15;89149.53;;;2.67;67.08
46782;BME280;32541;46.298;11.506;2023-12-20T09:08:41;89143.19;;;2.65;68.86
46782;BME280;32541;46.298;11.506;2023-12-20T09:11:06;89139.78;;;2.87;71.36
46782;BME280;32541;46.298;11.506;2023-12-20T09:13:32;89140.50;;;3.18;69.94
46782;BME280;32541;46.298;11.506;2023-12-20T09:15:57;89146.69;;;3.26;68.74
46782;BME280;32541;46.298;11.506;2023-12-20T09:18:23;89143.97;;;3.18;69.56
46782;BME280;32541;46.298;11.506;2023-12-20T09:20:48;89149.22;;;3.16;68.77
46782;BME280;32541;46.298;11.506;2023-12-20T09:23:14;89137.63;;;3.16;71.13
46782;BME280;32541;46.298;11.506;2023-12-20T09:25:39;89148.69;;;3.10;71.59
46782;BME280;32541;46.298;11.506;2023-12-20T09:28:05;89145.06;;;3.08;70.95
46782;BME280;32541;46.298;11.506;2023-12-20T09:30:30;89144.88;;;3.21;70.26
46782;BME280;32541;46.298;11.506;2023-12-20T09:32:57;89139.44;;;3.36;70.32
46782;BME280;32541;46.298;11.506;2023-12-20T09:35:23;89136.34;;;3.24;71.89
46782;BME280;32541;46.298;11.506;2023-12-20T09:37:49;89128.91;;;3.48;67.47
46782;BME280;32541;46.298;11.506;2023-12-20T09:40:18;89123.66;;;3.42;65.84
46782;BME280;32541;46.298;11.506;2023-12-20T09:43:04;89119.16;;;3.37;65.77
46782;BME280;32541;46.298;11.506;2023-12-20T09:45:31;89105.72;;;3.39;65.24
46782;BME280;32541;46.298;11.506;2023-12-20T09:47:57;89106.25;;;3.45;68.09
46782;BME280;32541;46.298;11.506;2023-12-20T09:50:23;89095.75;;;3.49;67.50
46782;BME280;32541;46.298;11.506;2023-12-20T09:52:50;89091.59;;;3.56;66.67
46782;BME280;32541;46.298;11.506;2023-12-20T09:55:20;89086.47;;;3.60;66.50
46782;BME280;32541;46.298;11.506;2023-12-20T09:57:47;89076.50;;;3.70;69.47
46782;BME280;32541;46.298;11.506;2023-12-20T10:00:14;89079.06;;;3.68;68.32
46782;BME280;32541;46.298;11.506;2023-12-20T10:02:50;89055.84;;;3.67;67.54
46782;BME280;32541;46.298;11.506;2023-12-20T10:05:26;89060.53;;;3.74;69.46
46782;BME280;32541;46.298;11.506;2023-12-20T10:07:52;89058.00;;;3.76;70.29
46782;BME280;32541;46.298;11.506;2023-12-20T10:10:17;89051.03;;;3.90;66.97
46782;BME280;32541;46.298;11.506;2023-12-20T10:13:04;89048.81;;;4.04;65.92
46782;BME280;32541;46.298;11.506;2023-12-20T10:15:30;89060.25;;;4.02;66.04
46782;BME280;32541;46.298;11.506;2023-12-20T10:17:56;89054.84;;;3.95;64.88
46782;BME280;32541;46.298;11.506;2023-12-20T10:20:22;89061.25;;;3.82;65.59
46782;BME280;32541;46.298;11.506;2023-12-20T10:22:47;89066.50;;;3.80;65.56
46782;BME280;32541;46.298;11.506;2023-12-20T10:25:14;89062.22;;;4.09;63.53
46782;BME280;32541;46.298;11.506;2023-12-20T10:27:39;89072.75;;;4.05;63.73
46782;BME280;32541;46.298;11.506;2023-12-20T10:30:05;89072.13;;;4.22;61.12
46782;BME280;32541;46.298;11.506;2023-12-20T10:32:31;89075.88;;;4.34;55.94
46782;BME280;32541;46.298;11.506;2023-12-20T10:34:56;89077.63;;;4.46;54.45
46782;BME280;32541;46.298;11.506;2023-12-20T10:37:22;89070.91;;;4.47;54.62
46782;BME280;32541;46.298;11.506;2023-12-20T10:39:52;89071.28;;;4.44;56.59
46782;BME280;32541;46.298;11.506;2023-12-20T10:42:22;89070.06;;;4.37;58.79
46782;BME280;32541;46.298;11.506;2023-12-20T10:44:48;89061.56;;;4.33;58.62
46782;BME280;32541;46.298;11.506;2023-12-20T10:47:15;89058.78;;;4.41;59.19
46782;BME280;32541;46.298;11.506;2023-12-20T10:49:41;89050.28;;;4.37;59.49
46782;BME280;32541;46.298;11.506;2023-12-20T10:52:08;89049.56;;;4.36;60.42
46782;BME280;32541;46.298;11.506;2023-12-20T10:54:34;89035.31;;;4.53;60.40
46782;BME280;32541;46.298;11.506;2023-12-20T10:57:00;89046.72;;;4.52;59.71
46782;BME280;32541;46.298;11.506;2023-12-20T10:59:27;89049.47;;;4.52;59.57
46782;BME280;32541;46.298;11.506;2023-12-20T11:01:55;89039.47;;;4.54;59.52
46782;BME280;32541;46.298;11.506;2023-12-20T11:04:27;89029.09;;;4.60;60.84
46782;BME280;32541;46.298;11.506;2023-12-20T11:09:41;89022.22;;;4.84;59.64
46782;BME280;32541;46.298;11.506;2023-12-20T11:14:51;89015.41;;;4.92;59.28
46782;BME280;32541;46.298;11.506;2023-12-20T11:17:17;89005.78;;;4.91;60.57
46782;BME280;32541;46.298;11.506;2023-12-20T11:20:04;89013.22;;;4.91;60.35
46782;BME280;32541;46.298;11.506;2023-12-20T11:22:31;89015.00;;;4.96;60.03
46782;BME280;32541;46.298;11.506;2023-12-20T11:25:07;89004.03;;;5.28;59.08
46782;BME280;32541;46.298;11.506;2023-12-20T11:27:37;89001.28;;;5.28;56.33
46782;BME280;32541;46.298;11.506;2023-12-20T11:30:05;89004.81;;;5.21;56.12
46782;BME280;32541;46.298;11.506;2023-12-20T11:32:34;88999.34;;;5.21;57.70
46782;BME280;32541;46.298;11.506;2023-12-20T11:35:16;88993.41;;;5.32;59.00
46782;BME280;32541;46.298;11.506;2023-12-20T11:37:41;88986.06;;;5.42;59.87
46782;BME280;32541;46.298;11.506;2023-12-20T11:40:11;88980.69;;;5.52;59.50
46782;BME280;32541;46.298;11.506;2023-12-20T11:42:40;88977.16;;;5.59;59.66
46782;BME280;32541;46.298;11.506;2023-12-20T11:45:16;88975.69;;;5.75;59.10
46782;BME280;32541;46.298;11.506;2023-12-20T11:47:46;88987.03;;;5.54;60.46
46782;BME280;32541;46.298;11.506;2023-12-20T11:50:12;88986.38;;;5.64;60.48
46782;BME280;32541;46.298;11.506;2023-12-20T11:52:38;88980.75;;;5.61;60.14
46782;BME280;32541;46.298;11.506;2023-12-20T11:55:03;88970.97;;;5.93;57.37
46782;BME280;32541;46.298;11.506;2023-12-20T11:57:33;88966.25;;;6.56;56.00
46782;BME280;32541;46.298;11.506;2023-12-20T11:59:59;88967.22;;;6.78;55.26
46782;BME280;32541;46.298;11.506;2023-12-20T12:02:24;88967.16;;;7.05;53.67
46782;BME280;32541;46.298;11.506;2023-12-20T12:04:50;88962.84;;;7.11;53.52
46782;BME280;32541;46.298;11.506;2023-12-20T12:07:18;88958.75;;;7.39;52.87
46782;BME280;32541;46.298;11.506;2023-12-20T12:09:44;88962.94;;;7.59;52.64
46782;BME280;32541;46.298;11.506;2023-12-20T12:12:10;88966.09;;;7.84;53.16
46782;BME280;32541;46.298;11.506;2023-12-20T12:14:37;88952.38;;;8.13;50.41
46782;BME280;32541;46.298;11.506;2023-12-20T12:17:03;88954.25;;;8.30;50.15
46782;BME280;32541;46.298;11.506;2023-12-20T12:19:29;88939.78;;;8.89;48.81
46782;BME280;32541;46.298;11.506;2023-12-20T12:22:07;88944.34;;;8.65;49.04
46782;BME280;32541;46.298;11.506;2023-12-20T12:24:34;88940.41;;;8.18;48.58
46782;BME280;32541;46.298;11.506;2023-12-20T12:26:59;88935.84;;;7.92;47.65
46782;BME280;32541;46.298;11.506;2023-12-20T12:29:25;88942.44;;;7.22;50.64
46782;BME280;32541;46.298;11.506;2023-12-20T12:31:51;88941.78;;;6.85;51.18
46782;BME280;32541;46.298;11.506;2023-12-20T12:34:17;88949.09;;;7.38;51.30
46782;BME280;32541;46.298;11.506;2023-12-20T12:36:43;88949.25;;;7.69;49.45
46782;BME280;32541;46.298;11.506;2023-12-20T12:39:08;88938.28;;;8.07;49.29
46782;BME280;32541;46.298;11.506;2023-12-20T12:41:34;88938.66;;;8.42;50.63
46782;BME280;32541;46.298;11.506;2023-12-20T12:44:00;88936.63;;;9.14;48.33
46782;BME280;32541;46.298;11.506;2023-12-20T12:46:25;88934.81;;;9.28;46.83
46782;BME280;32541;46.298;11.506;2023-12-20T12:48:51;88935.75;;;9.63;45.78
46782;BME280;32541;46.298;11.506;2023-12-20T12:51:16;88926.09;;;9.95;43.83
46782;BME280;32541;46.298;11.506;2023-12-20T12:53:42;88921.31;;;10.17;44.41
46782;BME280;32541;46.298;11.506;2023-12-20T12:56:07;88912.97;;;10.82;41.88
46782;BME280;32541;46.298;11.506;2023-12-20T12:58:33;88916.19;;;11.13;43.40
46782;BME280;32541;46.298;11.506;2023-12-20T13:00:59;88916.06;;;11.23;41.17